createdAt,value
2016-05-11T00:00:31.106Z,92.49
2016-05-11T00:01:31.061Z,92.02
2016-05-11T00:02:31.064Z,91.53
2016-05-11T00:03:31.098Z,91.92
2016-05-11T00:04:30.913Z,91.35
2016-05-11T00:05:31.072Z,91.83
2016-05-11T00:06:31.075Z,91.83
2016-05-11T00:07:31.077Z,91.35
2016-05-11T00:08:31.081Z,91.35
2016-05-11T00:09:31.083Z,91.39
2016-05-11T00:10:31.085Z,91.53
2016-05-11T00:11:31.089Z,90.96
2016-05-11T00:12:31.091Z,90.96
2016-05-11T00:13:31.093Z,91.35
2016-05-11T00:14:31.081Z,90.67
2016-05-11T00:15:31.115Z,90.96
2016-05-11T00:16:31.133Z,90.77
2016-05-11T00:17:31.182Z,90.82
2016-05-11T00:18:31.201Z,90.91
2016-05-11T00:19:30.969Z,90.67
2016-05-11T00:20:31.112Z,90.67
2016-05-11T00:21:31.099Z,90.67
2016-05-11T00:22:31.118Z,90.67
2016-05-11T00:23:31.120Z,90.87
2016-05-11T00:24:31.108Z,90.67
2016-05-11T00:25:31.110Z,91.16
2016-05-11T00:26:30.988Z,91.25
2016-05-11T00:27:31.132Z,91.35
2016-05-11T00:28:31.118Z,91.25
2016-05-11T00:29:31.121Z,91.63
2016-05-11T00:30:31.155Z,91.73
2016-05-11T00:31:31.158Z,91.92
2016-05-11T00:32:30.973Z,91.73
2016-05-11T00:33:31.148Z,91.92
2016-05-11T00:34:31.134Z,92.11
2016-05-11T00:35:31.137Z,92.4
2016-05-11T00:36:31.140Z,92.3
2016-05-11T00:37:31.158Z,92.78
2016-05-11T00:38:31.145Z,92.3
2016-05-11T00:39:31.023Z,92.88
2016-05-11T00:40:31.150Z,92.54
2016-05-11T00:41:31.169Z,92.74
2016-05-11T00:42:31.140Z,93.5
2016-05-11T00:43:31.159Z,93.6
2016-05-11T00:44:31.146Z,93.69
2016-05-11T00:45:31.508Z,94.17
2016-05-11T00:46:31.152Z,94.07
2016-05-11T00:47:31.154Z,93.98
2016-05-11T00:48:31.157Z,93.88
2016-05-11T00:49:31.160Z,94.36
2016-05-11T00:50:31.162Z,94.36
2016-05-11T00:51:31.165Z,94.17
2016-05-11T00:52:31.182Z,94.17
2016-05-11T00:53:31.170Z,94.26
2016-05-11T00:54:31.173Z,94.26
2016-05-11T00:55:31.191Z,94.26
2016-05-11T00:56:31.193Z,94.26
2016-05-11T00:57:31.181Z,94.17
2016-05-11T00:58:31.199Z,94.36
2016-05-11T00:59:31.170Z,93.98
2016-05-11T01:00:31.111Z,93.69
2016-05-11T01:01:31.191Z,94.26
2016-05-11T01:02:31.178Z,93.31
2016-05-11T01:03:31.181Z,93.31
2016-05-11T01:04:31.184Z,93.31
2016-05-11T01:05:31.203Z,93.31
2016-05-11T01:06:31.189Z,93.4
2016-05-11T01:07:31.192Z,94.07
2016-05-11T01:08:31.210Z,94.17
2016-05-11T01:09:31.197Z,93.69
2016-05-11T01:10:31.247Z,93.93
2016-05-11T01:11:31.203Z,94.26
2016-05-11T01:12:31.206Z,93.98
2016-05-11T01:13:31.208Z,94.07
2016-05-11T01:14:31.195Z,94.07
2016-05-11T01:15:31.213Z,94.17
2016-05-11T01:16:31.201Z,94.07
2016-05-11T01:17:31.218Z,93.69
2016-05-11T01:18:31.205Z,93.98
2016-05-11T01:19:31.052Z,94.07
2016-05-11T01:20:31.211Z,94.07
2016-05-11T01:21:31.230Z,93.84
2016-05-11T01:22:31.216Z,93.69
2016-05-11T01:23:31.235Z,93.31
2016-05-11T01:24:31.221Z,93.21
2016-05-11T01:25:31.225Z,93.5
2016-05-11T01:26:31.071Z,93.5
2016-05-11T01:27:31.215Z,93.6
2016-05-11T01:28:31.218Z,93.69
2016-05-11T01:29:31.220Z,93.02
2016-05-11T01:30:31.441Z,93.69
2016-05-11T01:31:31.240Z,93.6
2016-05-11T01:32:31.244Z,93.36
2016-05-11T01:33:31.231Z,93.12
2016-05-11T01:34:31.249Z,92.97
2016-05-11T01:35:31.236Z,93.65
2016-05-11T01:36:31.239Z,93.65
2016-05-11T01:37:31.085Z,93.65
2016-05-11T01:38:31.260Z,94.02
2016-05-11T01:39:31.247Z,94.22
2016-05-11T01:40:31.093Z,94.31
2016-05-11T01:41:31.253Z,94.79
2016-05-11T01:42:31.255Z,94.7
2016-05-11T01:43:31.242Z,95.36
2016-05-11T01:44:31.245Z,94.89
2016-05-11T01:45:31.263Z,94.79
2016-05-11T01:46:31.265Z,94.79
2016-05-11T01:47:31.252Z,95.75
2016-05-11T01:48:31.256Z,95.65
2016-05-11T01:49:31.258Z,95.75
2016-05-11T01:50:31.261Z,94.7
2016-05-11T01:51:31.107Z,94.89
2016-05-11T01:52:31.266Z,94.79
2016-05-11T01:53:31.300Z,95.75
2016-05-11T01:54:31.271Z,95.65
2016-05-11T01:55:31.274Z,95.65
2016-05-11T01:56:31.277Z,95.32
2016-05-11T01:57:31.280Z,95.61
2016-05-11T01:58:31.267Z,95.56
2016-05-11T01:59:31.254Z,95.56
2016-05-11T02:00:31.147Z,95.65
2016-05-11T02:01:31.306Z,95.56
2016-05-11T02:02:31.261Z,95.56
2016-05-11T02:03:31.312Z,95.22
2016-05-11T02:04:31.284Z,95.32
2016-05-11T02:05:31.301Z,95.51
2016-05-11T02:06:31.131Z,95.51
2016-05-11T02:07:31.134Z,95.32
2016-05-11T02:08:31.278Z,95.32
2016-05-11T02:09:31.280Z,95.41
2016-05-11T02:10:31.283Z,95.51
2016-05-11T02:11:31.317Z,95.7
2016-05-11T02:12:31.289Z,95.51
2016-05-11T02:13:31.307Z,96.17
2016-05-11T02:14:31.294Z,96.27
2016-05-11T02:15:31.406Z,95.79
2016-05-11T02:16:31.300Z,95.89
2016-05-11T02:17:31.318Z,95.89
2016-05-11T02:18:31.289Z,95.89
2016-05-11T02:19:31.292Z,95.98
2016-05-11T02:20:31.154Z,95.7
2016-05-11T02:21:31.313Z,95.7
2016-05-11T02:22:31.300Z,96.27
2016-05-11T02:23:31.302Z,96.17
2016-05-11T02:24:31.305Z,96.17
2016-05-11T02:25:31.307Z,96.08
2016-05-11T02:26:31.310Z,96.08
2016-05-11T02:27:31.298Z,96.08
2016-05-11T02:28:31.332Z,96.08
2016-05-11T02:29:31.318Z,96.27
2016-05-11T02:30:31.321Z,96.08
2016-05-11T02:31:31.309Z,95.89
2016-05-11T02:32:31.155Z,96.27
2016-05-11T02:33:31.314Z,95.7
2016-05-11T02:34:31.332Z,96.37
2016-05-11T02:35:31.319Z,96.17
2016-05-11T02:36:31.369Z,96.46
2016-05-11T02:37:31.153Z,96.08
2016-05-11T02:38:31.328Z,96.37
2016-05-11T02:39:31.315Z,96.46
2016-05-11T02:40:31.317Z,96.56
2016-05-11T02:41:31.351Z,96.46
2016-05-11T02:42:31.322Z,96.37
2016-05-11T02:43:31.325Z,96.37
2016-05-11T02:44:31.311Z,96.46
2016-05-11T02:45:31.315Z,95.79
2016-05-11T02:46:31.333Z,95.79
2016-05-11T02:47:31.320Z,96.08
2016-05-11T02:48:31.323Z,96.17
2016-05-11T02:49:31.341Z,96.17
2016-05-11T02:50:31.328Z,96.17
2016-05-11T02:51:31.331Z,95.79
2016-05-11T02:52:31.333Z,96.17
2016-05-11T02:53:31.352Z,96.27
2016-05-11T02:54:31.339Z,96.08
2016-05-11T02:55:31.341Z,95.89
2016-05-11T02:56:31.329Z,95.89
2016-05-11T02:57:31.346Z,95.65
2016-05-11T02:58:31.350Z,96.13
2016-05-11T02:59:31.338Z,95.27
2016-05-11T03:00:31.262Z,95.36
2016-05-11T03:01:31.248Z,95.46
2016-05-11T03:02:31.345Z,95.75
2016-05-11T03:03:31.331Z,96.22
2016-05-11T03:04:31.178Z,96.32
2016-05-11T03:05:31.354Z,96.22
2016-05-11T03:06:31.340Z,96.22
2016-05-11T03:07:31.343Z,96.13
2016-05-11T03:08:31.345Z,96.13
2016-05-11T03:09:31.348Z,96.22
2016-05-11T03:10:31.350Z,96.22
2016-05-11T03:11:31.369Z,96.32
2016-05-11T03:12:31.356Z,96.22
2016-05-11T03:13:31.203Z,96.51
2016-05-11T03:14:31.346Z,96.42
2016-05-11T03:15:31.192Z,96.8
2016-05-11T03:16:31.352Z,96.22
2016-05-11T03:17:31.355Z,96.42
2016-05-11T03:18:31.200Z,96.03
2016-05-11T03:19:31.360Z,95.94
2016-05-11T03:20:31.362Z,95.94
2016-05-11T03:21:31.365Z,96.03
2016-05-11T03:22:31.368Z,96.32
2016-05-11T03:23:31.370Z,96.03
2016-05-11T03:24:31.374Z,96.32
2016-05-11T03:25:31.360Z,95.94
2016-05-11T03:26:31.363Z,97.08
2016-05-11T03:27:31.366Z,96.61
2016-05-11T03:28:31.384Z,97.27
2016-05-11T03:29:31.198Z,97.37
2016-05-11T03:30:31.614Z,97.08
2016-05-11T03:31:31.422Z,96.89
2016-05-11T03:32:31.464Z,97.37
2016-05-11T03:33:31.491Z,96.61
2016-05-11T03:34:31.533Z,96.7
2016-05-11T03:35:31.415Z,96.51
2016-05-11T03:36:31.588Z,96.89
2016-05-11T03:37:31.590Z,96.8
2016-05-11T03:38:31.607Z,96.89
2016-05-11T03:39:31.624Z,96.8
2016-05-11T03:40:31.639Z,96.61
2016-05-11T03:41:31.647Z,96.61
2016-05-11T03:42:31.654Z,96.46
2016-05-11T03:43:31.677Z,96.66
2016-05-11T03:44:31.670Z,96.94
2016-05-11T03:45:31.833Z,96.75
2016-05-11T03:46:31.697Z,96.84
2016-05-11T03:47:31.686Z,96.84
2016-05-11T03:48:31.690Z,97.03
2016-05-11T03:49:31.726Z,96.94
2016-05-11T03:50:31.715Z,96.27
2016-05-11T03:51:31.686Z,96.37
2016-05-11T03:52:31.690Z,95.98
2016-05-11T03:53:31.693Z,96.27
2016-05-11T03:54:31.696Z,96.46
2016-05-11T03:55:31.699Z,96.27
2016-05-11T03:56:31.686Z,96.08
2016-05-11T03:57:31.721Z,95.89
2016-05-11T03:58:31.692Z,95.32
2016-05-11T03:59:31.695Z,95.32
2016-05-11T04:00:31.871Z,96.27
2016-05-11T04:01:31.561Z,96.08
2016-05-11T04:02:31.704Z,96.27
2016-05-11T04:03:31.723Z,96.08
2016-05-11T04:04:31.709Z,96.37
2016-05-11T04:05:31.696Z,96.37
2016-05-11T04:06:31.714Z,96.17
2016-05-11T04:07:31.718Z,96.08
2016-05-11T04:08:31.705Z,96.17
2016-05-11T04:09:31.723Z,96.27
2016-05-11T04:10:31.710Z,96.46
2016-05-11T04:11:31.712Z,95.79
2016-05-11T04:12:31.715Z,95.98
2016-05-11T04:13:31.703Z,95.41
2016-05-11T04:14:31.721Z,95.51
2016-05-11T04:15:31.724Z,95.51
2016-05-11T04:16:31.570Z,94.74
2016-05-11T04:17:31.573Z,94.6
2016-05-11T04:18:31.732Z,94.17
2016-05-11T04:19:31.578Z,94.31
2016-05-11T04:20:31.721Z,93.65
2016-05-11T04:21:31.724Z,93.45
2016-05-11T04:22:31.726Z,92.97
2016-05-11T04:23:31.729Z,92.79
2016-05-11T04:24:31.732Z,91.74
2016-05-11T04:25:31.720Z,90.44
2016-05-11T04:26:31.738Z,89.87
2016-05-11T04:27:31.740Z,89.87
2016-05-11T04:28:31.743Z,89.2
2016-05-11T04:29:31.730Z,88
2016-05-11T04:30:31.623Z,87.62
2016-05-11T04:31:31.750Z,87.33
2016-05-11T04:32:31.754Z,86.76
2016-05-11T04:33:31.741Z,85.89
2016-05-11T04:34:31.743Z,86.13
2016-05-11T04:35:31.761Z,86.57
2016-05-11T04:36:31.764Z,86.47
2016-05-11T04:37:31.766Z,87.14
2016-05-11T04:38:31.770Z,87.23
2016-05-11T04:39:31.616Z,87.43
2016-05-11T04:40:31.775Z,87.43
2016-05-11T04:41:31.778Z,87.76
2016-05-11T04:42:31.765Z,88.62
2016-05-11T04:43:31.768Z,88.34
2016-05-11T04:44:31.802Z,88.53
2016-05-11T04:45:31.632Z,88.91
2016-05-11T04:46:31.776Z,88.81
2016-05-11T04:47:31.779Z,89.39
2016-05-11T04:48:31.624Z,90.06
2016-05-11T04:49:31.784Z,90.01
2016-05-11T04:50:31.787Z,89.39
2016-05-11T04:51:31.773Z,89.39
2016-05-11T04:52:31.792Z,90.06
2016-05-11T04:53:31.795Z,89.92
2016-05-11T04:54:31.812Z,90.3
2016-05-11T04:55:31.801Z,90.11
2016-05-11T04:56:31.817Z,90.39
2016-05-11T04:57:31.821Z,90.2
2016-05-11T04:58:31.839Z,90.3
2016-05-11T04:59:31.811Z,90.3
2016-05-11T05:00:31.813Z,90.59
2016-05-11T05:01:31.817Z,89.82
2016-05-11T05:02:31.819Z,90.11
2016-05-11T05:03:31.822Z,90.11
2016-05-11T05:04:31.825Z,89.87
2016-05-11T05:05:31.811Z,89.06
2016-05-11T05:06:31.830Z,89.29
2016-05-11T05:07:31.816Z,88.91
2016-05-11T05:08:31.850Z,88.62
2016-05-11T05:09:31.838Z,88.43
2016-05-11T05:10:31.825Z,88.05
2016-05-11T05:11:31.843Z,88.24
2016-05-11T05:12:31.877Z,88.53
2016-05-11T05:13:31.849Z,88.62
2016-05-11T05:14:31.835Z,88.15
2016-05-11T05:15:31.838Z,88.34
2016-05-11T05:16:31.841Z,88.24
2016-05-11T05:17:31.827Z,87.38
2016-05-11T05:18:31.846Z,87.48
2016-05-11T05:19:31.849Z,87.38
2016-05-11T05:20:31.849Z,87.48
2016-05-11T05:21:31.885Z,88.15
2016-05-11T05:22:31.854Z,87.48
2016-05-11T05:23:31.841Z,86.71
2016-05-11T05:24:31.843Z,87.09
2016-05-11T05:25:31.863Z,86.61
2016-05-11T05:26:31.848Z,86.61
2016-05-11T05:27:31.852Z,86.43
2016-05-11T05:28:31.854Z,86.66
2016-05-11T05:29:31.857Z,85.8
2016-05-11T05:30:31.875Z,86.23
2016-05-11T05:31:31.895Z,85.38
2016-05-11T05:32:31.865Z,85.71
2016-05-11T05:33:31.853Z,85.32
2016-05-11T05:34:31.856Z,85.32
2016-05-11T05:35:31.873Z,85.13
2016-05-11T05:36:31.720Z,83.93
2016-05-11T05:37:31.878Z,81.38
2016-05-11T05:38:31.897Z,78.27
2016-05-11T05:39:31.884Z,75.81
2016-05-11T05:40:31.903Z,73.45
2016-05-11T05:41:31.889Z,73.1
2016-05-11T05:42:31.908Z,72.81
2016-05-11T05:43:32.302Z,73.45
2016-05-11T05:44:31.897Z,74.22
2016-05-11T05:45:32.291Z,75.81
2016-05-11T05:46:31.903Z,76.39
2016-05-11T05:47:31.765Z,77.4
2016-05-11T05:48:31.924Z,78.27
2016-05-11T05:49:31.927Z,79.13
2016-05-11T05:50:31.930Z,79.89
2016-05-11T05:51:31.916Z,80.14
2016-05-11T05:52:31.919Z,80.24
2016-05-11T05:53:31.937Z,80.71
2016-05-11T05:54:31.940Z,81
2016-05-11T05:55:31.927Z,81.1
2016-05-11T05:56:31.929Z,80.81
2016-05-11T05:57:31.932Z,80.71
2016-05-11T05:58:31.795Z,81
2016-05-11T05:59:31.984Z,80.62
2016-05-11T06:00:32.300Z,80.81
2016-05-11T06:01:31.943Z,80.81
2016-05-11T06:02:31.820Z,81.48
2016-05-11T06:03:31.981Z,81.29
2016-05-11T06:04:31.983Z,81
2016-05-11T06:05:31.986Z,80.81
2016-05-11T06:06:31.972Z,80.04
2016-05-11T06:07:31.991Z,80.81
2016-05-11T06:08:31.994Z,81.38
2016-05-11T06:09:31.996Z,81.67
2016-05-11T06:10:31.984Z,81.57
2016-05-11T06:11:32.002Z,81.2
2016-05-11T06:12:31.988Z,81.1
2016-05-11T06:13:32.023Z,80.04
2016-05-11T06:14:31.994Z,79.66
2016-05-11T06:15:32.091Z,77.97
2016-05-11T06:16:31.999Z,77.4
2016-05-11T06:17:32.033Z,76.73
2016-05-11T06:18:32.021Z,76.82
2016-05-11T06:19:33.351Z,76.44
2016-05-11T06:20:32.214Z,76.35
2016-05-11T06:21:33.918Z,75.81
2016-05-11T06:22:37.394Z,73.99
2016-05-11T06:23:32.066Z,73.7
2016-05-11T06:24:37.851Z,73.93
2016-05-11T06:25:42.542Z,73.22
2016-05-11T06:26:32.026Z,73.65
2016-05-11T06:27:34.232Z,73.93
2016-05-11T06:28:32.110Z,73.61
2016-05-11T06:29:31.894Z,73.7
2016-05-11T06:30:32.068Z,74.08
2016-05-11T06:31:32.056Z,74.57
2016-05-11T06:32:32.058Z,74.27
2016-05-11T06:33:32.077Z,74.85
2016-05-11T06:34:32.079Z,75.33
2016-05-11T06:35:32.067Z,75.81
2016-05-11T06:36:32.101Z,75.43
2016-05-11T06:37:32.087Z,75.71
2016-05-11T06:38:32.075Z,75.81
2016-05-11T06:39:32.092Z,76.29
2016-05-11T06:40:32.095Z,76.48
2016-05-11T06:41:32.114Z,76.29
2016-05-11T06:42:32.100Z,76
2016-05-11T06:43:31.947Z,76.39
2016-05-11T06:44:32.105Z,76.57
2016-05-11T06:45:32.124Z,76.39
2016-05-11T06:46:32.112Z,76.19
2016-05-11T06:47:31.958Z,76.39
2016-05-11T06:48:31.961Z,76.54
2016-05-11T06:49:32.150Z,77.02
2016-05-11T06:50:31.982Z,77.11
2016-05-11T06:51:32.141Z,76.44
2016-05-11T06:52:32.143Z,76.82
2016-05-11T06:53:32.146Z,76.48
2016-05-11T06:54:32.149Z,76.64
2016-05-11T06:55:32.135Z,76.35
2016-05-11T06:56:32.154Z,76.54
2016-05-11T06:57:32.172Z,76.57
2016-05-11T06:58:32.143Z,76.19
2016-05-11T06:59:32.146Z,76.67
2016-05-11T07:00:32.165Z,76.39
2016-05-11T07:01:32.215Z,76.1
2016-05-11T07:02:32.171Z,75.04
2016-05-11T07:03:32.172Z,74.95
2016-05-11T07:04:32.176Z,74.85
2016-05-11T07:05:32.194Z,74.37
2016-05-11T07:06:32.196Z,74.08
2016-05-11T07:07:32.184Z,73.74
2016-05-11T07:08:32.201Z,73.45
2016-05-11T07:09:32.204Z,73.26
2016-05-11T07:10:32.223Z,72.97
2016-05-11T07:11:32.069Z,73.07
2016-05-11T07:12:32.056Z,72.59
2016-05-11T07:13:32.058Z,72.59
2016-05-11T07:14:32.218Z,72.14
2016-05-11T07:15:32.064Z,71.57
2016-05-11T07:16:32.067Z,71.09
2016-05-11T07:17:32.241Z,71.47
2016-05-11T07:18:32.228Z,71.57
2016-05-11T07:19:32.294Z,71.28
2016-05-11T07:20:32.249Z,70.9
2016-05-11T07:21:32.252Z,70.8
2016-05-11T07:22:32.271Z,70.55
2016-05-11T07:23:32.241Z,70.93
2016-05-11T07:24:32.104Z,69.97
2016-05-11T07:25:32.247Z,69.78
2016-05-11T07:26:32.265Z,70.26
2016-05-11T07:27:32.269Z,70.07
2016-05-11T07:28:32.288Z,70.64
2016-05-11T07:29:32.274Z,70.74
2016-05-11T07:30:32.135Z,70.17
2016-05-11T07:31:32.279Z,70.07
2016-05-11T07:32:32.298Z,69.49
2016-05-11T07:33:32.128Z,69.53
2016-05-11T07:34:32.287Z,69.24
2016-05-11T07:35:32.337Z,69.34
2016-05-11T07:36:32.309Z,68.85
2016-05-11T07:37:32.326Z,68.18
2016-05-11T07:38:32.329Z,67.99
2016-05-11T07:39:32.317Z,67.64
2016-05-11T07:40:32.179Z,67.35
2016-05-11T07:41:32.337Z,66.87
2016-05-11T07:42:32.340Z,66.61
2016-05-11T07:43:32.625Z,65.75
2016-05-11T07:44:32.345Z,65.17
2016-05-11T07:45:32.348Z,64.89
2016-05-11T07:46:32.367Z,65.01
2016-05-11T07:47:32.370Z,64.6
2016-05-11T07:48:32.216Z,64.63
2016-05-11T07:49:32.391Z,64.15
2016-05-11T07:50:32.361Z,64.25
2016-05-11T07:51:32.396Z,63.57
2016-05-11T07:52:32.398Z,63.67
2016-05-11T07:53:32.385Z,64.34
2016-05-11T07:54:32.405Z,64.98
2016-05-11T07:55:32.391Z,64.79
2016-05-11T07:56:32.425Z,65.27
2016-05-11T07:57:32.412Z,65.66
2016-05-11T07:58:32.414Z,65.37
2016-05-11T07:59:32.418Z,65.27
2016-05-11T08:00:32.452Z,64.69
2016-05-11T08:01:32.438Z,65.17
2016-05-11T08:02:32.285Z,64.89
2016-05-11T08:03:32.443Z,64.89
2016-05-11T08:04:32.446Z,65.46
2016-05-11T08:05:32.449Z,65.84
2016-05-11T08:06:32.468Z,65.84
2016-05-11T08:07:32.470Z,65.46
2016-05-11T08:08:32.473Z,65.75
2016-05-11T08:09:32.459Z,66.2
2016-05-11T08:10:32.478Z,66.52
2016-05-11T08:11:32.496Z,66.52
2016-05-11T08:12:32.499Z,66.04
2016-05-11T08:13:32.345Z,65.46
2016-05-11T08:14:32.504Z,65.56
2016-05-11T08:15:32.773Z,64.98
2016-05-11T08:16:32.509Z,64.98
2016-05-11T08:17:32.512Z,64.69
2016-05-11T08:18:32.515Z,65.08
2016-05-11T08:19:32.517Z,64.69
2016-05-11T08:20:32.536Z,63.76
2016-05-11T08:21:32.539Z,63.28
2016-05-11T08:22:32.541Z,63.09
2016-05-11T08:23:32.544Z,62.16
2016-05-11T08:24:32.406Z,61.97
2016-05-11T08:25:32.550Z,61.49
2016-05-11T08:26:32.552Z,61.68
2016-05-11T08:27:32.430Z,61.19
2016-05-11T08:28:32.574Z,60.65
2016-05-11T08:29:32.435Z,60.75
2016-05-11T08:30:32.579Z,60.94
2016-05-11T08:31:32.582Z,61.04
2016-05-11T08:32:32.584Z,60.94
2016-05-11T08:33:32.602Z,60.84
2016-05-11T08:34:32.605Z,60.46
2016-05-11T08:35:32.639Z,59.97
2016-05-11T08:36:32.626Z,59.97
2016-05-11T08:37:32.629Z,60.17
2016-05-11T08:38:32.647Z,60.36
2016-05-11T08:39:32.650Z,58.27
2016-05-11T08:40:32.653Z,58.11
2016-05-11T08:41:32.656Z,57.62
2016-05-11T08:42:32.673Z,57.62
2016-05-11T08:43:32.676Z,57.82
2016-05-11T08:44:32.664Z,57.92
2016-05-11T08:45:32.947Z,58.49
2016-05-11T08:46:32.700Z,58.95
2016-05-11T08:47:32.687Z,59.33
2016-05-11T08:48:32.549Z,58.37
2016-05-11T08:49:32.709Z,58.49
2016-05-11T08:50:32.711Z,58.95
2016-05-11T08:51:32.728Z,58.75
2016-05-11T08:52:32.731Z,59.14
2016-05-11T08:53:32.734Z,59.88
2016-05-11T08:54:32.736Z,59.88
2016-05-11T08:55:32.755Z,60.94
2016-05-11T08:56:32.758Z,59.97
2016-05-11T08:57:32.761Z,58.75
2016-05-11T08:58:32.763Z,57.98
2016-05-11T08:59:32.766Z,58.49
2016-05-11T09:00:32.785Z,57.72
2016-05-11T09:01:32.802Z,58.27
2016-05-11T09:02:32.821Z,58.95
2016-05-11T09:03:32.652Z,58.56
2016-05-11T09:04:32.827Z,58.85
2016-05-11T09:05:32.829Z,58.17
2016-05-11T09:06:32.831Z,58.95
2016-05-11T09:07:32.866Z,57.79
2016-05-11T09:08:32.837Z,57.53
2016-05-11T09:09:32.839Z,57.72
2016-05-11T09:10:32.859Z,57.53
2016-05-11T09:11:32.861Z,57.82
2016-05-11T09:12:32.864Z,58.37
2016-05-11T09:13:32.882Z,59.72
2016-05-11T09:14:32.728Z,58.85
2016-05-11T09:15:32.887Z,58.75
2016-05-11T09:16:32.749Z,58.27
2016-05-11T09:17:32.752Z,58.47
2016-05-11T09:18:32.911Z,58.37
2016-05-11T09:19:32.913Z,58.47
2016-05-11T09:20:32.917Z,58.85
2016-05-11T09:21:32.919Z,58.56
2016-05-11T09:22:32.937Z,59.2
2016-05-11T09:23:32.940Z,59.78
2016-05-11T09:24:32.942Z,59.49
2016-05-11T09:25:32.805Z,59.01
2016-05-11T09:26:32.948Z,59.04
2016-05-11T09:27:32.966Z,58.37
2016-05-11T09:28:32.969Z,58.27
2016-05-11T09:29:32.972Z,59.04
2016-05-11T09:30:33.005Z,58.65
2016-05-11T09:31:32.821Z,58.47
2016-05-11T09:32:32.996Z,58.95
2016-05-11T09:33:33.013Z,57.12
2016-05-11T09:34:32.844Z,58.17
2016-05-11T09:35:33.004Z,60
2016-05-11T09:36:32.865Z,60
2016-05-11T09:37:33.009Z,58.95
2016-05-11T09:38:33.011Z,58.49
2016-05-11T09:39:32.874Z,57.62
2016-05-11T09:40:33.049Z,57.05
2016-05-11T09:41:33.035Z,56.88
2016-05-11T09:42:33.054Z,57.24
2016-05-11T09:43:32.900Z,56.57
2016-05-11T09:44:33.059Z,57.14
2016-05-11T09:45:32.920Z,57.24
2016-05-11T09:46:33.064Z,56.49
2016-05-11T09:47:33.067Z,55.54
2016-05-11T09:48:33.086Z,56.01
2016-05-11T09:49:33.088Z,56.66
2016-05-11T09:50:33.091Z,56.57
2016-05-11T09:51:32.969Z,56.66
2016-05-11T09:52:33.112Z,56.76
2016-05-11T09:53:32.958Z,56.37
2016-05-11T09:54:33.117Z,55.99
2016-05-11T09:55:33.119Z,57.62
2016-05-11T09:56:33.138Z,58.17
2016-05-11T09:57:33.141Z,58.2
2016-05-11T09:58:33.159Z,57.14
2016-05-11T09:59:33.161Z,56.27
2016-05-11T10:00:33.149Z,56.27
2016-05-11T10:01:33.166Z,55.89
2016-05-11T10:02:33.201Z,56.95
2016-05-11T10:03:33.172Z,57.72
2016-05-11T10:04:33.206Z,57.24
2016-05-11T10:05:33.178Z,57.05
2016-05-11T10:06:33.196Z,57.34
2016-05-11T10:07:33.215Z,56.95
2016-05-11T10:08:33.202Z,55.51
2016-05-11T10:09:33.220Z,55.92
2016-05-11T10:10:33.238Z,55.63
2016-05-11T10:11:33.226Z,54.69
2016-05-11T10:12:33.228Z,54.4
2016-05-11T10:13:33.231Z,53.92
2016-05-11T10:14:33.234Z,53.37
2016-05-11T10:15:33.111Z,53.75
2016-05-11T10:16:33.129Z,54.14
2016-05-11T10:17:33.273Z,52.79
2016-05-11T10:18:33.150Z,52.79
2016-05-11T10:19:33.279Z,52.01
2016-05-11T10:20:33.125Z,52.21
2016-05-11T10:21:33.143Z,52.11
2016-05-11T10:22:33.302Z,52.69
2016-05-11T10:23:33.304Z,52.79
2016-05-11T10:24:33.323Z,52.59
2016-05-11T10:25:34.106Z,52.69
2016-05-11T10:26:33.156Z,53.08
2016-05-11T10:27:33.347Z,53.37
2016-05-11T10:28:33.349Z,52.01
2016-05-11T10:29:33.352Z,51.44
2016-05-11T10:30:33.355Z,50.96
2016-05-11T10:32:46.955Z,50.86
2016-05-11T10:32:59.472Z,50.4
2016-05-11T10:33:59.491Z,50.79
2016-05-11T10:34:59.508Z,48.66
2016-05-11T10:35:59.512Z,46.75
2016-05-11T10:36:59.529Z,46.27
2016-05-11T10:37:59.549Z,46.3
2016-05-11T10:38:59.519Z,45.52
2016-05-11T10:39:59.522Z,44.87
2016-05-11T10:40:59.385Z,43.15
2016-05-11T10:41:59.388Z,43.13
2016-05-11T10:42:59.546Z,43.05
2016-05-11T10:43:59.423Z,43.15
2016-05-11T10:44:59.567Z,44.09
2016-05-11T10:45:59.570Z,43.71
2016-05-11T10:46:59.587Z,45.42
2016-05-11T10:47:59.590Z,45.33
2016-05-11T10:49:00.781Z,44.65
2016-05-11T10:49:59.596Z,44.92
2016-05-11T10:50:59.598Z,44.53
2016-05-11T10:51:59.601Z,45.31
2016-05-11T10:52:59.604Z,46.17
2016-05-11T10:54:00.842Z,45.69
2016-05-11T10:54:59.641Z,45.5
2016-05-11T10:55:59.644Z,46.37
2016-05-11T10:56:59.646Z,46.08
2016-05-11T10:57:59.649Z,47.14
2016-05-11T10:58:59.886Z,46.75
2016-05-11T10:59:59.670Z,46.27
2016-05-11T11:01:00.094Z,46.85
2016-05-11T11:01:59.675Z,46.37
2016-05-11T11:02:59.694Z,45.5
2016-05-11T11:04:01.087Z,45.59
2016-05-11T11:04:59.699Z,46.39
2016-05-11T11:05:59.561Z,45.04
2016-05-11T11:06:59.752Z,46.2
2016-05-11T11:07:59.754Z,46.58
2016-05-11T11:09:02.710Z,45.52
2016-05-11T11:09:59.774Z,44.96
2016-05-11T11:10:59.747Z,44.67
2016-05-11T11:11:59.593Z,43.99
2016-05-11T11:12:59.798Z,44.29
2016-05-11T11:14:00.505Z,44.96
2016-05-11T11:14:59.804Z,45.33
2016-05-11T11:15:59.806Z,45.52
2016-05-11T11:16:59.825Z,45.62
2016-05-11T11:17:59.813Z,47.24
2016-05-11T11:19:01.377Z,47.72
2016-05-11T11:19:59.848Z,47.91
2016-05-11T11:20:59.821Z,48.3
2016-05-11T11:21:59.854Z,47.81
2016-05-11T11:22:59.842Z,48.39
2016-05-11T11:24:01.328Z,48.01
2016-05-11T11:24:59.878Z,47.14
2016-05-11T11:25:59.850Z,46.3
2016-05-11T11:26:59.867Z,46.78
2016-05-11T11:27:59.933Z,46.03
2016-05-11T11:29:00.608Z,46.42
2016-05-11T11:29:59.906Z,45.74
2016-05-11T11:30:59.894Z,45.28
2016-05-11T11:31:59.912Z,45.16
2016-05-11T11:32:59.915Z,45.64
2016-05-11T11:34:02.058Z,44.67
2016-05-11T11:34:59.967Z,44.94
2016-05-11T11:35:59.922Z,47.16
2016-05-11T11:36:59.957Z,45.45
2016-05-11T11:37:59.960Z,46.78
2016-05-11T11:38:59.962Z,44.75
2016-05-11T11:39:59.793Z,44.94
2016-05-11T11:40:59.968Z,45.33
2016-05-11T11:41:59.971Z,44.56
2016-05-11T11:42:59.988Z,46.39
2016-05-11T11:44:01.663Z,45.72
2016-05-11T11:44:59.994Z,45.23
2016-05-11T11:45:59.997Z,45.42
2016-05-11T11:46:59.999Z,46.56
2016-05-11T11:48:00.034Z,45.69
2016-05-11T11:49:01.349Z,45.04
2016-05-11T11:50:00.023Z,45.52
2016-05-11T11:51:00.056Z,45.31
2016-05-11T11:52:00.045Z,45.62
2016-05-11T11:53:00.047Z,44.84
2016-05-11T11:54:00.425Z,44.94
2016-05-11T11:54:59.895Z,45.04
2016-05-11T11:56:00.071Z,44.67
2016-05-11T11:57:00.073Z,46.22
2016-05-11T11:58:00.075Z,45.54
2016-05-11T11:59:02.345Z,44.67
2016-05-11T12:00:00.551Z,44.67
2016-05-11T12:01:00.381Z,44.96
2016-05-11T12:02:00.102Z,43.99
2016-05-11T12:03:00.120Z,44.77
2016-05-11T12:04:00.108Z,45.14
2016-05-11T12:05:00.125Z,44.94
2016-05-11T12:06:00.128Z,45.62
2016-05-11T12:07:00.131Z,45.23
2016-05-11T12:08:00.150Z,45.23
2016-05-11T12:09:00.136Z,44.96
2016-05-11T12:10:00.171Z,44.77
2016-05-11T12:11:00.174Z,43.99
2016-05-11T12:12:00.161Z,43.99
2016-05-11T12:13:00.022Z,44.96
2016-05-11T12:14:00.041Z,44.67
2016-05-11T12:15:00.168Z,45.08
2016-05-11T12:16:00.046Z,43.15
2016-05-11T12:17:00.205Z,42.96
2016-05-11T12:18:00.207Z,44.02
2016-05-11T12:19:00.070Z,44.19
2016-05-11T12:20:00.229Z,43.8
2016-05-11T12:21:00.216Z,44.09
2016-05-11T12:22:00.234Z,43.8
2016-05-11T12:23:00.081Z,42.93
2016-05-11T12:24:00.240Z,43.23
2016-05-11T12:25:00.273Z,43.03
2016-05-11T12:26:00.261Z,42.65
2016-05-11T12:27:00.279Z,42.35
2016-05-11T12:28:00.298Z,42.28
2016-05-11T12:29:00.284Z,42.45
2016-05-11T12:30:00.287Z,42.28
2016-05-11T12:31:00.399Z,41.89
2016-05-11T12:32:00.183Z,41.79
2016-05-11T12:33:00.311Z,41.52
2016-05-11T12:34:00.172Z,40.75
2016-05-11T12:35:00.347Z,40.84
2016-05-11T12:36:00.163Z,40.17
2016-05-11T12:37:00.378Z,39.69
2016-05-11T12:38:00.475Z,40.86
2016-05-11T12:39:00.478Z,39.61
2016-05-11T12:40:00.512Z,40.96
2016-05-11T12:41:00.578Z,39.78
2016-05-11T12:42:00.705Z,39.8
2016-05-11T12:43:00.647Z,39.01
2016-05-11T12:44:00.666Z,39.59
2016-05-11T12:45:00.701Z,41.04
2016-05-11T12:46:00.737Z,40.17
2016-05-11T12:47:00.734Z,41.14
2016-05-11T12:48:00.759Z,41.21
2016-05-11T12:49:00.784Z,40.53
2016-05-11T12:50:00.777Z,39.95
2016-05-11T12:51:00.786Z,40.83
2016-05-11T12:52:00.823Z,41.7
2016-05-11T12:53:00.797Z,41.31
2016-05-11T12:54:00.817Z,39.97
2016-05-11T12:55:00.837Z,39.11
2016-05-11T12:56:00.858Z,39.59